sensor_id;sensor_type;location;lat;lon;timestamp;P1;durP1;ratioP1;P2;durP2;ratioP2
10082;SDS011;5080;48.528;8.078;2024-01-06T00:01:53;12.37;;;11.97;;
10082;SDS011;5080;48.528;8.078;2024-01-06T00:04:20;13.07;;;12.57;;
10082;SDS011;5080;48.528;8.078;2024-01-06T00:06:47;14.17;;;13.67;;
10082;SDS011;5080;48.528;8.078;2024-01-06T00:09:13;12.97;;;12.57;;
10082;SDS011;5080;48.528;8.078;2024-01-06T00:11:40;12.57;;;12.17;;
10082;SDS011;5080;48.528;8.078;2024-01-06T00:14:07;11.77;;;11.37;;
10082;SDS011;5080;48.528;8.078;2024-01-06T00:16:35;12.57;;;12.13;;
10082;SDS011;5080;48.528;8.078;2024-01-06T00:19:02;12.30;;;11.90;;
10082;SDS011;5080;48.528;8.078;2024-01-06T00:21:29;13.23;;;12.73;;
10082;SDS011;5080;48.528;8.078;2024-01-06T00:23:55;12.60;;;12.20;;
10082;SDS011;5080;48.528;8.078;2024-01-06T00:26:22;12.27;;;11.87;;
10082;SDS011;5080;48.528;8.078;2024-01-06T00:28:49;12.60;;;12.20;;
10082;SDS011;5080;48.528;8.078;2024-01-06T00:31:16;13.00;;;12.50;;
10082;SDS011;5080;48.528;8.078;2024-01-06T00:33:44;12.33;;;11.90;;
10082;SDS011;5080;48.528;8.078;2024-01-06T00:36:11;12.20;;;11.80;;
10082;SDS011;5080;48.528;8.078;2024-01-06T00:38:38;13.20;;;12.70;;
10082;SDS011;5080;48.528;8.078;2024-01-06T00:41:05;13.07;;;12.57;;
10082;SDS011;5080;48.528;8.078;2024-01-06T00:43:31;12.83;;;12.43;;
10082;SDS011;5080;48.528;8.078;2024-01-06T00:45:58;12.50;;;12.10;;
10082;SDS011;5080;48.528;8.078;2024-01-06T00:48:25;12.83;;;12.43;;
10082;SDS011;5080;48.528;8.078;2024-01-06T00:50:53;13.90;;;13.40;;
10082;SDS011;5080;48.528;8.078;2024-01-06T00:53:20;12.57;;;12.17;;
10082;SDS011;5080;48.528;8.078;2024-01-06T00:55:47;13.07;;;12.57;;
10082;SDS011;5080;48.528;8.078;2024-01-06T00:58:14;12.47;;;12.00;;
10082;SDS011;5080;48.528;8.078;2024-01-06T01:00:41;13.27;;;12.77;;
10082;SDS011;5080;48.528;8.078;2024-01-06T01:03:07;12.17;;;11.77;;
10082;SDS011;5080;48.528;8.078;2024-01-06T01:05:34;11.90;;;11.50;;
10082;SDS011;5080;48.528;8.078;2024-01-06T01:08:02;12.63;;;12.13;;
10082;SDS011;5080;48.528;8.078;2024-01-06T01:10:29;12.52;;;12.05;;
10082;SDS011;5080;48.528;8.078;2024-01-06T01:12:56;11.55;;;11.15;;
10082;SDS011;5080;48.528;8.078;2024-01-06T01:15:22;12.37;;;11.97;;
10082;SDS011;5080;48.528;8.078;2024-01-06T01:17:49;12.47;;;11.97;;
10082;SDS011;5080;48.528;8.078;2024-01-06T01:20:16;11.40;;;11.00;;
10082;SDS011;5080;48.528;8.078;2024-01-06T01:22:43;11.47;;;11.07;;
10082;SDS011;5080;48.528;8.078;2024-01-06T01:25:11;12.50;;;12.00;;
10082;SDS011;5080;48.528;8.078;2024-01-06T01:27:38;12.17;;;11.67;;
10082;SDS011;5080;48.528;8.078;2024-01-06T01:30:05;12.47;;;12.07;;
10082;SDS011;5080;48.528;8.078;2024-01-06T01:32:32;13.30;;;12.80;;
10082;SDS011;5080;48.528;8.078;2024-01-06T01:34:59;13.07;;;12.63;;
10082;SDS011;5080;48.528;8.078;2024-01-06T01:37:26;13.73;;;13.23;;
10082;SDS011;5080;48.528;8.078;2024-01-06T01:39:52;11.43;;;11.03;;
10082;SDS011;5080;48.528;8.078;2024-01-06T01:42:20;12.63;;;12.20;;
10082;SDS011;5080;48.528;8.078;2024-01-06T01:44:47;12.70;;;12.30;;
10082;SDS011;5080;48.528;8.078;2024-01-06T01:47:14;12.00;;;11.60;;
10082;SDS011;5080;48.528;8.078;2024-01-06T01:49:43;12.60;;;12.20;;
10082;SDS011;5080;48.528;8.078;2024-01-06T01:52:11;12.73;;;12.30;;
10082;SDS011;5080;48.528;8.078;2024-01-06T01:54:39;11.47;;;11.07;;
10082;SDS011;5080;48.528;8.078;2024-01-06T01:57:06;11.57;;;11.18;;
10082;SDS011;5080;48.528;8.078;2024-01-06T01:59:34;12.17;;;11.77;;
10082;SDS011;5080;48.528;8.078;2024-01-06T02:02:01;11.75;;;11.35;;
10082;SDS011;5080;48.528;8.078;2024-01-06T02:04:28;12.13;;;11.73;;
10082;SDS011;5080;48.528;8.078;2024-01-06T02:06:55;11.80;;;11.30;;
10082;SDS011;5080;48.528;8.078;2024-01-06T02:09:22;12.90;;;12.40;;
10082;SDS011;5080;48.528;8.078;2024-01-06T02:11:52;11.73;;;11.33;;
10082;SDS011;5080;48.528;8.078;2024-01-06T02:14:18;11.57;;;11.17;;
10082;SDS011;5080;48.528;8.078;2024-01-06T02:16:46;12.43;;;12.03;;
10082;SDS011;5080;48.528;8.078;2024-01-06T02:19:13;11.67;;;11.27;;
10082;SDS011;5080;48.528;8.078;2024-01-06T02:21:42;12.83;;;12.33;;
10082;SDS011;5080;48.528;8.078;2024-01-06T02:24:11;12.23;;;11.80;;
10082;SDS011;5080;48.528;8.078;2024-01-06T02:26:38;12.10;;;11.70;;
10082;SDS011;5080;48.528;8.078;2024-01-06T02:29:04;12.10;;;11.70;;
10082;SDS011;5080;48.528;8.078;2024-01-06T02:31:31;12.33;;;11.90;;
10082;SDS011;5080;48.528;8.078;2024-01-06T02:33:58;12.57;;;12.17;;
10082;SDS011;5080;48.528;8.078;2024-01-06T02:36:24;12.63;;;12.23;;
10082;SDS011;5080;48.528;8.078;2024-01-06T02:38:51;13.17;;;12.67;;
10082;SDS011;5080;48.528;8.078;2024-01-06T02:41:19;12.30;;;11.82;;
10082;SDS011;5080;48.528;8.078;2024-01-06T02:43:46;12.03;;;11.63;;
10082;SDS011;5080;48.528;8.078;2024-01-06T02:46:12;12.43;;;12.03;;
10082;SDS011;5080;48.528;8.078;2024-01-06T02:48:39;12.77;;;12.37;;
10082;SDS011;5080;48.528;8.078;2024-01-06T02:51:06;11.90;;;11.50;;
10082;SDS011;5080;48.528;8.078;2024-01-06T02:53:32;11.40;;;11.00;;
10082;SDS011;5080;48.528;8.078;2024-01-06T02:55:59;12.80;;;12.30;;
10082;SDS011;5080;48.528;8.078;2024-01-06T02:58:27;11.77;;;11.37;;
10082;SDS011;5080;48.528;8.078;2024-01-06T03:00:54;10.88;;;10.48;;
10082;SDS011;5080;48.528;8.078;2024-01-06T03:03:21;11.27;;;10.87;;
10082;SDS011;5080;48.528;8.078;2024-01-06T03:05:47;11.60;;;11.20;;
10082;SDS011;5080;48.528;8.078;2024-01-06T03:08:14;11.57;;;11.17;;
10082;SDS011;5080;48.528;8.078;2024-01-06T03:10:41;11.60;;;11.20;;
10082;SDS011;5080;48.528;8.078;2024-01-06T03:13:08;11.27;;;10.87;;
10082;SDS011;5080;48.528;8.078;2024-01-06T03:15:36;11.13;;;10.73;;
10082;SDS011;5080;48.528;8.078;2024-01-06T03:18:03;11.67;;;11.27;;
10082;SDS011;5080;48.528;8.078;2024-01-06T03:20:30;12.27;;;11.87;;
10082;SDS011;5080;48.528;8.078;2024-01-06T03:22:56;12.03;;;11.63;;
10082;SDS011;5080;48.528;8.078;2024-01-06T03:25:23;11.93;;;11.53;;
10082;SDS011;5080;48.528;8.078;2024-01-06T03:27:50;11.33;;;10.93;;
10082;SDS011;5080;48.528;8.078;2024-01-06T03:30:18;11.67;;;11.27;;
10082;SDS011;5080;48.528;8.078;2024-01-06T03:32:46;11.77;;;11.37;;
10082;SDS011;5080;48.528;8.078;2024-01-06T03:35:13;12.60;;;12.10;;
10082;SDS011;5080;48.528;8.078;2024-01-06T03:37:40;11.33;;;10.93;;
10082;SDS011;5080;48.528;8.078;2024-01-06T03:40:07;10.93;;;10.53;;
10082;SDS011;5080;48.528;8.078;2024-01-06T03:42:35;11.52;;;11.13;;
10082;SDS011;5080;48.528;8.078;2024-01-06T03:45:02;11.57;;;11.17;;
10082;SDS011;5080;48.528;8.078;2024-01-06T03:47:29;11.83;;;11.43;;
10082;SDS011;5080;48.528;8.078;2024-01-06T03:49:57;12.20;;;11.80;;
10082;SDS011;5080;48.528;8.078;2024-01-06T03:52:24;12.10;;;11.70;;
10082;SDS011;5080;48.528;8.078;2024-01-06T03:54:51;11.40;;;11.00;;
10082;SDS011;5080;48.528;8.078;2024-01-06T03:57:16;11.50;;;11.10;;
10082;SDS011;5080;48.528;8.078;2024-01-06T03:59:43;11.23;;;10.82;;
10082;SDS011;5080;48.528;8.078;2024-01-06T04:02:10;11.13;;;10.73;;
10082;SDS011;5080;48.528;8.078;2024-01-06T04:04:37;11.47;;;11.07;;
10082;SDS011;5080;48.528;8.078;2024-01-06T04:07:05;11.27;;;10.87;;
10082;SDS011;5080;48.528;8.078;2024-01-06T04:09:32;11.70;;;11.30;;
10082;SDS011;5080;48.528;8.078;2024-01-06T04:11:58;11.77;;;11.37;;
10082;SDS011;5080;48.528;8.078;2024-01-06T04:14:25;11.73;;;11.33;;
10082;SDS011;5080;48.528;8.078;2024-01-06T04:16:52;12.03;;;11.63;;
10082;SDS011;5080;48.528;8.078;2024-01-06T04:19:20;11.77;;;11.37;;
10082;SDS011;5080;48.528;8.078;2024-01-06T04:21:47;11.60;;;11.20;;
10082;SDS011;5080;48.528;8.078;2024-01-06T04:24:15;10.67;;;10.27;;
10082;SDS011;5080;48.528;8.078;2024-01-06T04:26:42;11.20;;;10.80;;
10082;SDS011;5080;48.528;8.078;2024-01-06T04:29:10;11.67;;;11.27;;
10082;SDS011;5080;48.528;8.078;2024-01-06T04:31:36;10.73;;;10.33;;
10082;SDS011;5080;48.528;8.078;2024-01-06T04:34:03;11.17;;;10.77;;
10082;SDS011;5080;48.528;8.078;2024-01-06T04:36:30;10.80;;;10.40;;
10082;SDS011;5080;48.528;8.078;2024-01-06T04:38:57;11.20;;;10.80;;
10082;SDS011;5080;48.528;8.078;2024-01-06T04:41:25;11.27;;;10.87;;
10082;SDS011;5080;48.528;8.078;2024-01-06T04:43:51;11.47;;;11.07;;
10082;SDS011;5080;48.528;8.078;2024-01-06T04:46:18;11.17;;;10.77;;
10082;SDS011;5080;48.528;8.078;2024-01-06T04:48:45;10.73;;;10.33;;
10082;SDS011;5080;48.528;8.078;2024-01-06T04:51:12;10.97;;;10.57;;
10082;SDS011;5080;48.528;8.078;2024-01-06T04:53:39;11.13;;;10.73;;
10082;SDS011;5080;48.528;8.078;2024-01-06T04:56:06;11.00;;;10.60;;
10082;SDS011;5080;48.528;8.078;2024-01-06T04:58:34;10.33;;;10.03;;
10082;SDS011;5080;48.528;8.078;2024-01-06T05:01:00;10.63;;;10.23;;
10082;SDS011;5080;48.528;8.078;2024-01-06T05:03:28;11.23;;;10.83;;
10082;SDS011;5080;48.528;8.078;2024-01-06T05:05:54;11.40;;;11.00;;
10082;SDS011;5080;48.528;8.078;2024-01-06T05:08:20;10.77;;;10.37;;
10082;SDS011;5080;48.528;8.078;2024-01-06T05:10:47;11.77;;;11.37;;
10082;SDS011;5080;48.528;8.078;2024-01-06T05:13:14;11.57;;;11.17;;
10082;SDS011;5080;48.528;8.078;2024-01-06T05:15:43;11.30;;;10.90;;
10082;SDS011;5080;48.528;8.078;2024-01-06T05:18:10;10.80;;;10.40;;
10082;SDS011;5080;48.528;8.078;2024-01-06T05:20:37;11.00;;;10.60;;
10082;SDS011;5080;48.528;8.078;2024-01-06T05:23:05;10.97;;;10.57;;
10082;SDS011;5080;48.528;8.078;2024-01-06T05:25:32;10.77;;;10.37;;
10082;SDS011;5080;48.528;8.078;2024-01-06T05:27:59;10.50;;;10.10;;
10082;SDS011;5080;48.528;8.078;2024-01-06T05:30:26;11.40;;;11.00;;
10082;SDS011;5080;48.528;8.078;2024-01-06T05:32:54;11.67;;;11.27;;
10082;SDS011;5080;48.528;8.078;2024-01-06T05:35:20;12.13;;;11.73;;
10082;SDS011;5080;48.528;8.078;2024-01-06T05:37:48;11.93;;;11.53;;
10082;SDS011;5080;48.528;8.078;2024-01-06T05:40:14;11.67;;;11.20;;
10082;SDS011;5080;48.528;8.078;2024-01-06T05:42:41;10.90;;;10.50;;
10082;SDS011;5080;48.528;8.078;2024-01-06T05:45:10;12.30;;;11.80;;
10082;SDS011;5080;48.528;8.078;2024-01-06T05:47:36;11.40;;;11.00;;
10082;SDS011;5080;48.528;8.078;2024-01-06T05:50:05;11.13;;;10.73;;
10082;SDS011;5080;48.528;8.078;2024-01-06T05:52:34;10.90;;;10.50;;
10082;SDS011;5080;48.528;8.078;2024-01-06T05:55:01;11.63;;;11.23;;
10082;SDS011;5080;48.528;8.078;2024-01-06T05:57:27;11.57;;;11.17;;
10082;SDS011;5080;48.528;8.078;2024-01-06T05:59:54;11.83;;;11.43;;
10082;SDS011;5080;48.528;8.078;2024-01-06T06:02:21;11.33;;;10.93;;
10082;SDS011;5080;48.528;8.078;2024-01-06T06:04:47;11.23;;;10.83;;
10082;SDS011;5080;48.528;8.078;2024-01-06T06:07:15;11.10;;;10.70;;
10082;SDS011;5080;48.528;8.078;2024-01-06T06:09:42;11.17;;;10.77;;
10082;SDS011;5080;48.528;8.078;2024-01-06T06:12:12;10.90;;;10.50;;
10082;SDS011;5080;48.528;8.078;2024-01-06T06:14:39;11.03;;;10.63;;
10082;SDS011;5080;48.528;8.078;2024-01-06T06:17:05;10.40;;;10.03;;
10082;SDS011;5080;48.528;8.078;2024-01-06T06:19:32;10.73;;;10.33;;
10082;SDS011;5080;48.528;8.078;2024-01-06T06:21:59;10.63;;;10.23;;
10082;SDS011;5080;48.528;8.078;2024-01-06T06:24:27;10.67;;;10.27;;
10082;SDS011;5080;48.528;8.078;2024-01-06T06:26:53;11.70;;;11.30;;
10082;SDS011;5080;48.528;8.078;2024-01-06T06:29:20;11.30;;;10.90;;
10082;SDS011;5080;48.528;8.078;2024-01-06T06:31:47;10.90;;;10.50;;
10082;SDS011;5080;48.528;8.078;2024-01-06T06:34:14;10.83;;;10.43;;
10082;SDS011;5080;48.528;8.078;2024-01-06T06:36:40;11.60;;;11.20;;
10082;SDS011;5080;48.528;8.078;2024-01-06T06:39:07;10.73;;;10.33;;
10082;SDS011;5080;48.528;8.078;2024-01-06T06:41:36;11.30;;;10.90;;
10082;SDS011;5080;48.528;8.078;2024-01-06T06:44:03;11.33;;;10.93;;
10082;SDS011;5080;48.528;8.078;2024-01-06T06:46:29;11.13;;;10.73;;
10082;SDS011;5080;48.528;8.078;2024-01-06T06:48:56;11.37;;;10.97;;
10082;SDS011;5080;48.528;8.078;2024-01-06T06:51:23;11.03;;;10.63;;
10082;SDS011;5080;48.528;8.078;2024-01-06T06:53:52;11.13;;;10.73;;
10082;SDS011;5080;48.528;8.078;2024-01-06T06:56:18;11.70;;;11.30;;
10082;SDS011;5080;48.528;8.078;2024-01-06T06:58:46;12.00;;;11.60;;
10082;SDS011;5080;48.528;8.078;2024-01-06T07:01:13;11.87;;;11.47;;
10082;SDS011;5080;48.528;8.078;2024-01-06T07:03:40;11.53;;;11.00;;
10082;SDS011;5080;48.528;8.078;2024-01-06T07:06:07;11.83;;;11.43;;
10082;SDS011;5080;48.528;8.078;2024-01-06T07:08:33;12.00;;;11.53;;
10082;SDS011;5080;48.528;8.078;2024-01-06T07:11:00;12.40;;;11.90;;
10082;SDS011;5080;48.528;8.078;2024-01-06T07:13:27;11.40;;;11.00;;
10082;SDS011;5080;48.528;8.078;2024-01-06T07:15:55;11.43;;;11.03;;
10082;SDS011;5080;48.528;8.078;2024-01-06T07:18:21;11.20;;;10.80;;
10082;SDS011;5080;48.528;8.078;2024-01-06T07:20:50;11.33;;;10.93;;
10082;SDS011;5080;48.528;8.078;2024-01-06T07:23:16;11.40;;;11.00;;
10082;SDS011;5080;48.528;8.078;2024-01-06T07:25:43;11.17;;;10.77;;
10082;SDS011;5080;48.528;8.078;2024-01-06T07:28:10;11.73;;;11.33;;
10082;SDS011;5080;48.528;8.078;2024-01-06T07:30:37;11.93;;;11.47;;
10082;SDS011;5080;48.528;8.078;2024-01-06T07:33:05;11.00;;;10.60;;
10082;SDS011;5080;48.528;8.078;2024-01-06T07:35:32;11.90;;;11.50;;
10082;SDS011;5080;48.528;8.078;2024-01-06T07:37:58;11.57;;;11.10;;
10082;SDS011;5080;48.528;8.078;2024-01-06T07:40:25;11.27;;;10.87;;
10082;SDS011;5080;48.528;8.078;2024-01-06T07:42:52;11.43;;;11.03;;
10082;SDS011;5080;48.528;8.078;2024-01-06T07:45:18;12.03;;;11.53;;
10082;SDS011;5080;48.528;8.078;2024-01-06T07:47:45;11.43;;;11.03;;
10082;SDS011;5080;48.528;8.078;2024-01-06T07:50:13;11.03;;;10.63;;
10082;SDS011;5080;48.528;8.078;2024-01-06T07:52:40;11.33;;;10.93;;
10082;SDS011;5080;48.528;8.078;2024-01-06T07:55:07;11.47;;;11.03;;
10082;SDS011;5080;48.528;8.078;2024-01-06T07:57:34;11.10;;;10.70;;
10082;SDS011;5080;48.528;8.078;2024-01-06T08:00:00;11.60;;;11.20;;
10082;SDS011;5080;48.528;8.078;2024-01-06T08:02:27;11.10;;;10.70;;
10082;SDS011;5080;48.528;8.078;2024-01-06T08:04:54;11.47;;;11.07;;
10082;SDS011;5080;48.528;8.078;2024-01-06T08:07:23;11.43;;;11.03;;
10082;SDS011;5080;48.528;8.078;2024-01-06T08:09:50;10.97;;;10.57;;
10082;SDS011;5080;48.528;8.078;2024-01-06T08:12:16;11.07;;;10.67;;
10082;SDS011;5080;48.528;8.078;2024-01-06T08:14:44;12.10;;;11.50;;
10082;SDS011;5080;48.528;8.078;2024-01-06T08:17:10;10.90;;;10.50;;
10082;SDS011;5080;48.528;8.078;2024-01-06T08:19:37;11.33;;;10.93;;
10082;SDS011;5080;48.528;8.078;2024-01-06T08:22:04;11.27;;;10.87;;
10082;SDS011;5080;48.528;8.078;2024-01-06T08:24:32;10.90;;;10.50;;
10082;SDS011;5080;48.528;8.078;2024-01-06T08:26:58;11.70;;;11.27;;
10082;SDS011;5080;48.528;8.078;2024-01-06T08:29:25;11.00;;;10.60;;
10082;SDS011;5080;48.528;8.078;2024-01-06T08:31:52;11.20;;;10.80;;
10082;SDS011;5080;48.528;8.078;2024-01-06T08:34:19;10.93;;;10.53;;
10082;SDS011;5080;48.528;8.078;2024-01-06T08:36:46;11.83;;;11.33;;
10082;SDS011;5080;48.528;8.078;2024-01-06T08:39:13;11.27;;;10.77;;
10082;SDS011;5080;48.528;8.078;2024-01-06T08:41:41;11.37;;;10.97;;
10082;SDS011;5080;48.528;8.078;2024-01-06T08:44:08;10.77;;;10.37;;
10082;SDS011;5080;48.528;8.078;2024-01-06T08:46:34;11.10;;;10.70;;
10082;SDS011;5080;48.528;8.078;2024-01-06T08:49:01;11.10;;;10.70;;
10082;SDS011;5080;48.528;8.078;2024-01-06T08:51:28;11.47;;;10.97;;
10082;SDS011;5080;48.528;8.078;2024-01-06T08:53:56;11.43;;;10.93;;
10082;SDS011;5080;48.528;8.078;2024-01-06T08:56:22;11.40;;;10.90;;
10082;SDS011;5080;48.528;8.078;2024-01-06T08:58:52;11.00;;;10.60;;
10082;SDS011;5080;48.528;8.078;2024-01-06T09:01:18;11.67;;;11.27;;
10082;SDS011;5080;48.528;8.078;2024-01-06T09:03:45;11.17;;;10.77;;
10082;SDS011;5080;48.528;8.078;2024-01-06T09:06:12;11.87;;;11.40;;
10082;SDS011;5080;48.528;8.078;2024-01-06T09:08:39;11.47;;;11.07;;
10082;SDS011;5080;48.528;8.078;2024-01-06T09:11:06;12.57;;;12.10;;
10082;SDS011;5080;48.528;8.078;2024-01-06T09:13:33;11.93;;;11.53;;
10082;SDS011;5080;48.528;8.078;2024-01-06T09:16:01;11.80;;;11.40;;
10082;SDS011;5080;48.528;8.078;2024-01-06T09:18:28;11.47;;;11.07;;
10082;SDS011;5080;48.528;8.078;2024-01-06T09:20:55;11.90;;;11.50;;
10082;SDS011;5080;48.528;8.078;2024-01-06T09:23:22;11.93;;;11.53;;
10082;SDS011;5080;48.528;8.078;2024-01-06T09:25:48;11.87;;;11.43;;
10082;SDS011;5080;48.528;8.078;2024-01-06T09:28:17;11.80;;;11.40;;
10082;SDS011;5080;48.528;8.078;2024-01-06T09:30:43;11.63;;;11.23;;
10082;SDS011;5080;48.528;8.078;2024-01-06T09:33:12;11.87;;;11.37;;
10082;SDS011;5080;48.528;8.078;2024-01-06T09:35:40;11.37;;;10.97;;
10082;SDS011;5080;48.528;8.078;2024-01-06T09:38:08;11.20;;;10.80;;
10082;SDS011;5080;48.528;8.078;2024-01-06T09:40:35;11.87;;;11.43;;
10082;SDS011;5080;48.528;8.078;2024-01-06T09:43:08;11.37;;;10.97;;
10082;SDS011;5080;48.528;8.078;2024-01-06T09:45:35;11.57;;;11.17;;
10082;SDS011;5080;48.528;8.078;2024-01-06T09:48:02;11.50;;;11.10;;
10082;SDS011;5080;48.528;8.078;2024-01-06T09:50:36;11.43;;;11.03;;
10082;SDS011;5080;48.528;8.078;2024-01-06T09:53:05;11.83;;;11.43;;
10082;SDS011;5080;48.528;8.078;2024-01-06T09:55:36;11.70;;;11.30;;
10082;SDS011;5080;48.528;8.078;2024-01-06T09:58:03;11.90;;;11.50;;
10082;SDS011;5080;48.528;8.078;2024-01-06T10:00:31;11.87;;;11.47;;
10082;SDS011;5080;48.528;8.078;2024-01-06T10:02:58;11.13;;;10.73;;
10082;SDS011;5080;48.528;8.078;2024-01-06T10:05:25;11.23;;;10.83;;
10082;SDS011;5080;48.528;8.078;2024-01-06T10:07:53;11.27;;;10.87;;
10082;SDS011;5080;48.528;8.078;2024-01-06T10:10:20;11.27;;;10.87;;
10082;SDS011;5080;48.528;8.078;2024-01-06T10:12:49;11.70;;;11.30;;
10082;SDS011;5080;48.528;8.078;2024-01-06T10:15:19;12.67;;;12.17;;
10082;SDS011;5080;48.528;8.078;2024-01-06T10:17:46;11.13;;;10.73;;
10082;SDS011;5080;48.528;8.078;2024-01-06T10:20:13;11.27;;;10.87;;
10082;SDS011;5080;48.528;8.078;2024-01-06T10:22:40;11.40;;;11.00;;
10082;SDS011;5080;48.528;8.078;2024-01-06T10:25:09;11.97;;;11.53;;
10082;SDS011;5080;48.528;8.078;2024-01-06T10:27:39;11.80;;;11.40;;
10082;SDS011;5080;48.528;8.078;2024-01-06T10:30:07;11.27;;;10.87;;
10082;SDS011;5080;48.528;8.078;2024-01-06T10:32:35;11.43;;;11.03;;
10082;SDS011;5080;48.528;8.078;2024-01-06T10:35:02;12.20;;;11.70;;
10082;SDS011;5080;48.528;8.078;2024-01-06T10:37:31;11.23;;;10.73;;
10082;SDS011;5080;48.528;8.078;2024-01-06T10:40:05;12.20;;;11.80;;
10082;SDS011;5080;48.528;8.078;2024-01-06T10:42:35;10.67;;;10.27;;
10082;SDS011;5080;48.528;8.078;2024-01-06T10:45:04;11.90;;;11.50;;
10082;SDS011;5080;48.528;8.078;2024-01-06T10:47:34;11.60;;;11.20;;
10082;SDS011;5080;48.528;8.078;2024-01-06T10:50:02;11.57;;;11.17;;
10082;SDS011;5080;48.528;8.078;2024-01-06T10:52:29;11.50;;;11.03;;
10082;SDS011;5080;48.528;8.078;2024-01-06T10:54:57;10.83;;;10.43;;
10082;SDS011;5080;48.528;8.078;2024-01-06T10:57:24;11.30;;;10.90;;
10082;SDS011;5080;48.528;8.078;2024-01-06T10:59:54;11.27;;;10.87;;
10082;SDS011;5080;48.528;8.078;2024-01-06T11:02:23;11.20;;;10.80;;
10082;SDS011;5080;48.528;8.078;2024-01-06T11:04:51;11.10;;;10.70;;
10082;SDS011;5080;48.528;8.078;2024-01-06T11:07:19;11.33;;;10.93;;
10082;SDS011;5080;48.528;8.078;2024-01-06T11:09:47;13.80;;;13.27;;
10082;SDS011;5080;48.528;8.078;2024-01-06T11:12:17;11.40;;;11.00;;
10082;SDS011;5080;48.528;8.078;2024-01-06T11:14:44;11.50;;;11.10;;
10082;SDS011;5080;48.528;8.078;2024-01-06T11:17:13;11.00;;;10.60;;
10082;SDS011;5080;48.528;8.078;2024-01-06T11:20:15;11.23;;;10.83;;
10082;SDS011;5080;48.528;8.078;2024-01-06T11:22:42;11.43;;;11.03;;
10082;SDS011;5080;48.528;8.078;2024-01-06T11:25:12;12.60;;;12.10;;
10082;SDS011;5080;48.528;8.078;2024-01-06T11:27:41;11.47;;;11.07;;
10082;SDS011;5080;48.528;8.078;2024-01-06T11:30:18;11.43;;;11.03;;
10082;SDS011;5080;48.528;8.078;2024-01-06T11:32:47;11.80;;;11.40;;
10082;SDS011;5080;48.528;8.078;2024-01-06T11:35:14;13.27;;;12.77;;
10082;SDS011;5080;48.528;8.078;2024-01-06T11:37:52;11.60;;;11.20;;
10082;SDS011;5080;48.528;8.078;2024-01-06T11:40:22;11.70;;;11.20;;
10082;SDS011;5080;48.528;8.078;2024-01-06T11:42:56;11.63;;;11.23;;
10082;SDS011;5080;48.528;8.078;2024-01-06T11:45:24;12.47;;;11.97;;
10082;SDS011;5080;48.528;8.078;2024-01-06T11:47:54;11.80;;;11.40;;
10082;SDS011;5080;48.528;8.078;2024-01-06T11:50:21;11.70;;;11.30;;
10082;SDS011;5080;48.528;8.078;2024-01-06T11:52:48;11.43;;;11.03;;
10082;SDS011;5080;48.528;8.078;2024-01-06T11:55:16;12.77;;;12.27;;
10082;SDS011;5080;48.528;8.078;2024-01-06T11:57:44;12.23;;;11.73;;
10082;SDS011;5080;48.528;8.078;2024-01-06T12:00:12;11.70;;;11.30;;
10082;SDS011;5080;48.528;8.078;2024-01-06T12:02:39;11.60;;;11.20;;
10082;SDS011;5080;48.528;8.078;2024-01-06T12:05:11;13.13;;;12.63;;
10082;SDS011;5080;48.528;8.078;2024-01-06T12:07:40;12.03;;;11.63;;
10082;SDS011;5080;48.528;8.078;2024-01-06T12:10:07;11.80;;;11.40;;
10082;SDS011;5080;48.528;8.078;2024-01-06T12:12:34;11.53;;;11.13;;
10082;SDS011;5080;48.528;8.078;2024-01-06T12:15:01;13.13;;;12.63;;
10082;SDS011;5080;48.528;8.078;2024-01-06T12:17:29;14.23;;;13.67;;
10082;SDS011;5080;48.528;8.078;2024-01-06T12:19:57;13.27;;;12.77;;
10082;SDS011;5080;48.528;8.078;2024-01-06T12:22:25;14.20;;;13.70;;
10082;SDS011;5080;48.528;8.078;2024-01-06T12:24:52;12.70;;;12.20;;
10082;SDS011;5080;48.528;8.078;2024-01-06T12:27:19;13.53;;;13.03;;
10082;SDS011;5080;48.528;8.078;2024-01-06T12:29:46;12.63;;;12.20;;
10082;SDS011;5080;48.528;8.078;2024-01-06T12:32:13;13.27;;;12.77;;
10082;SDS011;5080;48.528;8.078;2024-01-06T12:34:40;13.40;;;12.90;;
10082;SDS011;5080;48.528;8.078;2024-01-06T12:37:07;13.10;;;12.60;;
10082;SDS011;5080;48.528;8.078;2024-01-06T12:39:37;12.73;;;12.23;;
10082;SDS011;5080;48.528;8.078;2024-01-06T12:42:04;13.23;;;12.73;;
10082;SDS011;5080;48.528;8.078;2024-01-06T12:44:30;13.30;;;12.80;;
10082;SDS011;5080;48.528;8.078;2024-01-06T12:47:01;15.03;;;14.43;;
10082;SDS011;5080;48.528;8.078;2024-01-06T12:49:28;13.33;;;12.83;;
10082;SDS011;5080;48.528;8.078;2024-01-06T12:51:55;14.03;;;13.53;;
10082;SDS011;5080;48.528;8.078;2024-01-06T12:54:22;13.60;;;13.10;;
10082;SDS011;5080;48.528;8.078;2024-01-06T12:56:50;13.70;;;13.20;;
10082;SDS011;5080;48.528;8.078;2024-01-06T12:59:17;13.83;;;13.33;;
10082;SDS011;5080;48.528;8.078;2024-01-06T13:01:44;14.00;;;13.50;;
10082;SDS011;5080;48.528;8.078;2024-01-06T13:04:10;14.00;;;13.50;;
10082;SDS011;5080;48.528;8.078;2024-01-06T13:06:37;14.00;;;13.50;;
10082;SDS011;5080;48.528;8.078;2024-01-06T13:09:05;14.93;;;14.43;;
10082;SDS011;5080;48.528;8.078;2024-01-06T13:11:32;15.00;;;14.40;;
10082;SDS011;5080;48.528;8.078;2024-01-06T13:14:01;15.70;;;15.10;;
10082;SDS011;5080;48.528;8.078;2024-01-06T13:16:28;15.73;;;15.13;;
10082;SDS011;5080;48.528;8.078;2024-01-06T13:18:55;14.97;;;14.40;;
10082;SDS011;5080;48.528;8.078;2024-01-06T13:21:23;15.63;;;15.03;;
10082;SDS011;5080;48.528;8.078;2024-01-06T13:23:50;15.67;;;15.07;;
10082;SDS011;5080;48.528;8.078;2024-01-06T13:26:16;17.17;;;16.47;;
10082;SDS011;5080;48.528;8.078;2024-01-06T13:28:43;16.57;;;15.97;;
10082;SDS011;5080;48.528;8.078;2024-01-06T13:31:12;15.43;;;14.83;;
10082;SDS011;5080;48.528;8.078;2024-01-06T13:33:40;15.77;;;15.23;;
10082;SDS011;5080;48.528;8.078;2024-01-06T13:36:06;15.33;;;14.73;;
10082;SDS011;5080;48.528;8.078;2024-01-06T13:38:33;16.27;;;15.67;;
10082;SDS011;5080;48.528;8.078;2024-01-06T13:41:00;16.13;;;15.53;;
10082;SDS011;5080;48.528;8.078;2024-01-06T13:43:28;16.10;;;15.50;;
10082;SDS011;5080;48.528;8.078;2024-01-06T13:45:54;15.10;;;14.50;;
10082;SDS011;5080;48.528;8.078;2024-01-06T13:48:23;15.57;;;15.03;;
10082;SDS011;5080;48.528;8.078;2024-01-06T13:50:49;16.63;;;16.03;;
10082;SDS011;5080;48.528;8.078;2024-01-06T13:53:16;16.83;;;16.23;;
10082;SDS011;5080;48.528;8.078;2024-01-06T13:55:43;15.90;;;15.30;;
10082;SDS011;5080;48.528;8.078;2024-01-06T13:58:10;15.33;;;14.73;;
10082;SDS011;5080;48.528;8.078;2024-01-06T14:00:37;16.83;;;16.17;;
10082;SDS011;5080;48.528;8.078;2024-01-06T14:03:04;16.27;;;15.67;;
10082;SDS011;5080;48.528;8.078;2024-01-06T14:05:33;16.30;;;15.70;;
10082;SDS011;5080;48.528;8.078;2024-01-06T14:08:00;16.77;;;16.17;;
10082;SDS011;5080;48.528;8.078;2024-01-06T14:10:27;16.20;;;15.60;;
10082;SDS011;5080;48.528;8.078;2024-01-06T14:12:54;17.40;;;16.73;;
10082;SDS011;5080;48.528;8.078;2024-01-06T14:15:21;18.57;;;17.87;;
10082;SDS011;5080;48.528;8.078;2024-01-06T14:17:48;16.10;;;15.50;;
10082;SDS011;5080;48.528;8.078;2024-01-06T14:20:16;16.13;;;15.53;;
10082;SDS011;5080;48.528;8.078;2024-01-06T14:22:45;16.73;;;16.13;;
10082;SDS011;5080;48.528;8.078;2024-01-06T14:25:12;17.20;;;16.50;;
10082;SDS011;5080;48.528;8.078;2024-01-06T14:27:39;15.70;;;15.10;;
10082;SDS011;5080;48.528;8.078;2024-01-06T14:30:06;15.57;;;15.00;;
10082;SDS011;5080;48.528;8.078;2024-01-06T14:32:34;15.37;;;14.87;;
10082;SDS011;5080;48.528;8.078;2024-01-06T14:35:01;15.83;;;15.23;;